Aeroporto :
LOGIN :

Iscrizione | Disclaimer

   EN    FR    IT 

 










Sommario :    VFR   VFR Marginale   IFR   IFR Intensivo   IFR Molto Intensivo
Visibilità : 
Base nubi : 
>= 8 km
>= 3000ft
5 / 8 km
1000 / 3000 ft
1500m / 5 km
500 / 1000 ft
800 / 1500m
200 / 500 ft
< 800m
< 200 ft
Simboli :   Temporali  Nebbia  Neve Forte  Precipitazioni Forti  Vento > 20 kt
SIGMETs :   Varie  Temporali  Ghiacco  Turbolenza  Onda orograficha  Ceneri Vulcaniche






- Altitudine del aeroporto : 158 ft
- Codice IATA : QAR


EHDL - Deelen Airbase

ULTIMO METAR :
  • 240825Z AUTO 33013KT 290V030 4600 RA FEW007 FEW015CB BKN017 OVC020 03/02 Q1009 GRN

METARs OBSOLETI :
  • 240755Z AUTO 32010KT 250V020 5000 SHRA +DZ FEW012 BKN015CB BKN018 04/02 Q1009 WHT
  • 240738Z AUTO 28009KT 220V010 9999 FEW018 SCT022 BKN025 06/03 Q1008 WHT
  • 240725Z AUTO 27009KT 210V360 9999 SCT022 BKN051 OVC059 06/03 Q1008 WHT
  • 240655Z AUTO 26009KT 200V320 9999 BKN054 OVC059 05/02 Q1009 BLU
  • 240625Z AUTO 26007KT 220V330 9999 FEW031 SCT036 BKN042 04/02 Q1009 BLU
  • 240555Z AUTO 25007KT 180V310 9999 FEW042 BKN052 BKN064 04/02 Q1009 BLU
  • 240525Z AUTO VRB02KT 9999 -RADZ FEW014 SCT026 BKN033 03/02 Q1010 RERA REDZ BLU
  • 240455Z AUTO 29006KT 9999 -RA FEW015CB BKN020 BKN038 03/01 Q1010 WHT
  • 240425Z AUTO 26005KT 200V320 9999 FEW033 02/01 Q1010 BLU
  • 240355Z AUTO 27007KT 190V340 9999 FEW044 SCT054 BKN067 03/01 Q1010 BLU

TAF TAF EHDL
Valido dal 24 a 05 ore il 24 a 17 ore UTC


240426Z 2405/2417 27006KT 9999 SCT020 BKN030
BECMG 2406/2408 31010KT
TEMPO 2408/2414 32015G27KT 4000 SHRA SHRAGS SCT012 SCT015CB BKN020
PROB30 2411/2413 2500 TSRAGS SCT010 SCT014CB BKN018
PROB30
TEMPO 2413/2417 4500 -SHRA FEW012 SCT018CB



MetMap, La meteo Aeronautica in un colpo d'occhio ! - Copyright ORBIFLY Dicembre 2007 - Disclaimer

ORBIFLY MET'MAP TEAM :

Programmazione e sviluppo : Alexandra Zaïnal
Concezione : Baudouin d'Aumeries
Supporto tecnico e logistico : Manuel Goepfert
Aiuto : Marc-Olivier Méhu
Aiuto per la traduzione : Arnaldo La Scala




FONTI E CREDITI :

   NOAA